Time;durP1;ratioP1;P1;durP2;ratioP2;P2;SDS_P1;SDS_P2;PMS_P1;PMS_P2;Temp;Humidity;BMP_temperature;BMP_pressure;BME280_temperature;BME280_humidity;BME280_pressure;Samples;Min_cycle;Max_cycle;Signal;HPM_P1;HPM_P2
2021/03/08 00:01:03;;;;;;;;;;;;;;;7.18;49.05;101076.50;5022831;28;19917;-77
2021/03/08 00:03:48;;;;;;;;;;;;;;;7.03;49.61;101072.03;5033199;28;19916;-77
2021/03/08 00:06:33;;;;;;;;;;;;;;;6.92;49.95;101084.00;5021976;28;20289;-76
2021/03/08 00:09:18;;;;;;;;;;;;;;;6.84;49.87;101080.03;5031936;28;19921;-77
2021/03/08 00:12:08;;;;;;;;;;;;;;;6.87;49.72;101082.16;5031601;28;20288;-76
2021/03/08 00:14:52;;;;;;;;;;;;;;;6.82;49.92;101082.19;5017529;28;19913;-77
2021/03/08 00:17:37;;;;;;;;;;;;;;;6.76;49.69;101074.38;5031647;28;20376;-77
2021/03/08 00:20:24;;;;;;;;;;;;;;;6.47;50.26;101078.91;5043306;28;20381;-77
2021/03/08 00:23:08;;;;;;;;;;;;;;;6.63;49.96;101077.72;5053775;28;19917;-77
2021/03/08 00:25:52;;;;;;;;;;;;;;;6.64;50.21;101072.06;5056592;28;20283;-76
2021/03/08 00:28:37;;;;;;;;;;;;;;;6.66;50.09;101077.97;5059057;28;19913;-77
2021/03/08 00:31:22;;;;;;;;;;;;;;;6.72;49.87;101065.25;5031483;28;19913;-77
2021/03/08 00:34:08;;;;;;;;;;;;;;;6.69;49.72;101071.22;5025741;28;19912;-78
2021/03/08 00:36:53;;;;;;;;;;;;;;;6.53;50.02;101067.81;5024386;28;19913;-78
2021/03/08 00:39:38;;;;;;;;;;;;;;;6.67;49.75;101067.97;5032373;28;19916;-78
2021/03/08 00:42:22;;;;;;;;;;;;;;;6.66;49.47;101072.56;5058289;28;19912;-78
2021/03/08 00:45:10;;;;;;;;;;;;;;;6.69;49.47;101058.50;5044749;28;19912;-77
2021/03/08 00:47:55;;;;;;;;;;;;;;;6.71;49.58;101059.03;5048651;28;19912;-77
2021/03/08 00:50:40;;;;;;;;;;;;;;;6.63;49.84;101061.53;5034464;28;20335;-77
2021/03/08 00:53:31;;;;;;;;;;;;;;;6.47;49.88;101050.00;5024971;28;19921;-78
2021/03/08 00:56:16;;;;;;;;;;;;;;;6.39;50.44;101053.31;5037922;28;19912;-78
2021/03/08 00:59:00;;;;;;;;;;;;;;;6.38;50.06;101054.38;5037713;28;19913;-77
2021/03/08 01:01:45;;;;;;;;;;;;;;;6.48;50.40;101050.81;5052301;28;19917;-75
2021/03/08 01:04:30;;;;;;;;;;;;;;;6.51;49.82;101044.84;5045608;28;20375;-75
2021/03/08 01:07:15;;;;;;;;;;;;;;;6.41;50.40;101045.72;5045377;28;19912;-77
2021/03/08 01:10:09;;;;;;;;;;;;;;;6.40;50.08;101036.00;5034851;28;19913;-78
2021/03/08 01:12:54;;;;;;;;;;;;;;;6.30;50.53;101034.16;5027516;28;19913;-78
2021/03/08 01:15:40;;;;;;;;;;;;;;;6.23;50.55;101036.38;5039113;28;19913;-76
2021/03/08 01:18:24;;;;;;;;;;;;;;;6.30;50.62;101028.75;5022158;28;19913;-77
2021/03/08 01:21:09;;;;;;;;;;;;;;;6.24;50.69;101024.50;5028280;28;19917;-76
2021/03/08 01:23:53;;;;;;;;;;;;;;;6.29;50.55;101023.66;5042967;28;19913;-78
2021/03/08 01:26:38;;;;;;;;;;;;;;;6.26;50.39;101030.41;5025832;28;19917;-78
2021/03/08 01:29:22;;;;;;;;;;;;;;;6.34;50.12;101015.53;5029288;28;19913;-78
2021/03/08 01:32:07;;;;;;;;;;;;;;;6.29;50.16;101019.06;5039481;28;19913;-78
2021/03/08 01:34:51;;;;;;;;;;;;;;;6.24;50.38;101020.97;5022467;28;19913;-78
2021/03/08 01:37:37;;;;;;;;;;;;;;;6.16;51.25;101008.06;5021578;28;19913;-77
2021/03/08 01:40:23;;;;;;;;;;;;;;;6.23;50.90;101008.56;5049830;28;19916;-76
2021/03/08 01:43:08;;;;;;;;;;;;;;;6.16;50.90;101002.66;5058295;28;19917;-78
2021/03/08 01:45:53;;;;;;;;;;;;;;;6.11;51.32;101000.78;5036317;28;19913;-78
2021/03/08 01:48:38;;;;;;;;;;;;;;;6.11;50.79;100990.00;5060477;28;19916;-77
2021/03/08 01:51:23;;;;;;;;;;;;;;;6.01;50.65;100987.34;5013946;28;19913;-78
2021/03/08 01:54:08;;;;;;;;;;;;;;;6.03;50.71;100978.97;5022200;28;19913;-75
2021/03/08 01:56:52;;;;;;;;;;;;;;;6.10;50.59;100982.16;5025980;28;20376;-76
2021/03/08 01:59:37;;;;;;;;;;;;;;;6.01;50.83;100966.56;5039189;28;19913;-76
2021/03/08 02:02:22;;;;;;;;;;;;;;;5.98;50.79;100974.41;5055217;28;19917;-76
2021/03/08 02:05:08;;;;;;;;;;;;;;;5.97;50.97;100970.09;5056859;28;19913;-77
2021/03/08 02:07:53;;;;;;;;;;;;;;;5.83;51.16;100964.47;5044743;28;19913;-77
2021/03/08 02:10:39;;;;;;;;;;;;;;;5.96;50.70;100952.28;5043276;28;19917;-77
2021/03/08 02:13:24;;;;;;;;;;;;;;;6.06;51.25;100954.13;5047642;28;20399;-78
2021/03/08 02:16:30;;;;;;;;;;;;;;;6.19;51.10;100953.50;5036161;28;20311;-76
2021/03/08 02:19:33;;;;;;;;;;;;;;;6.00;51.09;100945.25;5037136;28;19913;-77
2021/03/08 02:22:37;;;;;;;;;;;;;;;5.93;50.74;100933.97;5054193;28;19920;-77
2021/03/08 02:25:32;;;;;;;;;;;;;;;5.82;51.27;100937.75;5055375;28;19917;-77
2021/03/08 02:28:45;;;;;;;;;;;;;;;5.90;50.93;100940.72;5030586;28;19913;-76
2021/03/08 02:31:32;;;;;;;;;;;;;;;6.03;50.31;100938.50;5057682;22;19921;-85
2021/03/08 02:34:23;;;;;;;;;;;;;;;5.95;50.49;100929.88;5036911;28;19921;-85
2021/03/08 02:37:15;;;;;;;;;;;;;;;5.94;50.58;100930.97;5036015;28;19913;-85
2021/03/08 02:40:03;;;;;;;;;;;;;;;5.97;50.68;100933.13;5053388;28;19913;-85
2021/03/08 02:42:51;;;;;;;;;;;;;;;5.82;51.12;100933.19;5056671;28;19912;-85
2021/03/08 02:45:36;;;;;;;;;;;;;;;5.77;51.32;100925.09;5052577;28;19916;-85
2021/03/08 02:48:23;;;;;;;;;;;;;;;5.82;51.21;100925.09;5070136;28;20390;-84
2021/03/08 02:51:09;;;;;;;;;;;;;;;5.83;51.05;100926.69;5075343;28;19912;-85
2021/03/08 02:53:56;;;;;;;;;;;;;;;5.76;51.47;100920.78;5073170;28;19912;-85
2021/03/08 02:56:42;;;;;;;;;;;;;;;5.67;51.36;100925.16;5098475;28;20375;-84
2021/03/08 02:59:28;;;;;;;;;;;;;;;5.80;51.09;100913.75;5075280;28;19912;-83
2021/03/08 03:02:13;;;;;;;;;;;;;;;5.79;51.34;100919.44;5075289;28;19919;-84
2021/03/08 03:04:58;;;;;;;;;;;;;;;5.63;51.80;100917.91;5089351;28;19912;-84
2021/03/08 03:07:45;;;;;;;;;;;;;;;5.52;52.18;100917.94;5075926;28;19912;-84
2021/03/08 03:10:33;;;;;;;;;;;;;;;5.64;51.74;100920.31;5087943;28;19912;-84
2021/03/08 03:13:18;;;;;;;;;;;;;;;5.52;51.84;100919.84;5070694;28;20954;-84
2021/03/08 03:16:04;;;;;;;;;;;;;;;5.72;51.44;100922.44;5082635;28;19911;-84
2021/03/08 03:18:53;;;;;;;;;;;;;;;5.48;51.72;100913.38;5075843;28;19912;-83
2021/03/08 03:21:38;;;;;;;;;;;;;;;5.60;51.52;100911.16;5082461;28;19915;-83
2021/03/08 03:24:24;;;;;;;;;;;;;;;5.46;52.06;100920.94;5089503;28;20390;-83
2021/03/08 03:27:08;;;;;;;;;;;;;;;5.52;52.01;100919.84;5075559;28;19912;-83
2021/03/08 03:29:54;;;;;;;;;;;;;;;5.44;52.28;100929.28;5099304;28;19912;-83
2021/03/08 03:32:41;;;;;;;;;;;;;;;5.56;51.86;100920.88;5069441;28;19916;-84
2021/03/08 03:35:26;;;;;;;;;;;;;;;5.54;51.74;100918.47;5087818;28;19912;-85
2021/03/08 03:38:11;;;;;;;;;;;;;;;5.54;52.01;100925.75;5071034;28;19912;-86
2021/03/08 03:40:57;;;;;;;;;;;;;;;5.50;52.14;100919.28;5072471;28;19920;-86
2021/03/08 03:43:42;;;;;;;;;;;;;;;5.40;52.38;100919.34;5098255;28;19912;-84
2021/03/08 03:46:26;;;;;;;;;;;;;;;5.48;51.95;100930.38;5099961;28;20459;-85
2021/03/08 03:49:12;;;;;;;;;;;;;;;5.42;52.11;100922.56;5083034;28;19911;-85
2021/03/08 03:51:57;;;;;;;;;;;;;;;5.50;51.72;100924.69;5082459;28;19912;-84
2021/03/08 03:54:46;;;;;;;;;;;;;;;5.40;52.09;100920.13;5080188;28;19912;-84
2021/03/08 03:57:45;;;;;;;;;;;;;;;5.44;52.74;100909.59;5078001;28;19912;-86
2021/03/08 04:00:32;;;;;;;;;;;;;;;5.46;52.78;100921.75;5078869;28;19912;-86
2021/03/08 04:03:20;;;;;;;;;;;;;;;5.53;52.56;100924.16;5081503;28;19915;-85
2021/03/08 04:06:06;;;;;;;;;;;;;;;5.49;51.91;100921.19;5081813;28;20306;-84
2021/03/08 04:08:52;;;;;;;;;;;;;;;5.37;52.51;100922.59;5104162;28;19911;-84
2021/03/08 04:11:38;;;;;;;;;;;;;;;5.34;52.08;100921.25;5076462;28;20110;-84
2021/03/08 04:14:23;;;;;;;;;;;;;;;5.42;52.72;100927.97;5095714;28;19912;-84
2021/03/08 04:17:09;;;;;;;;;;;;;;;5.41;52.00;100919.06;5078827;28;19912;-84
2021/03/08 04:19:55;;;;;;;;;;;;;;;5.46;52.27;100921.75;5089562;28;20381;-84
2021/03/08 04:22:40;;;;;;;;;;;;;;;5.51;51.71;100915.50;5068661;28;19920;-84
2021/03/08 04:25:25;;;;;;;;;;;;;;;5.49;51.63;100917.66;5075606;28;19912;-84
2021/03/08 04:28:10;;;;;;;;;;;;;;;5.25;51.97;100911.31;5070869;28;19913;-84
2021/03/08 04:30:56;;;;;;;;;;;;;;;5.27;52.11;100906.44;5072949;28;19916;-84
2021/03/08 04:33:42;;;;;;;;;;;;;;;5.23;52.13;100908.91;5088790;28;19912;-83
2021/03/08 04:36:28;;;;;;;;;;;;;;;5.28;52.22;100918.84;5080956;28;19912;-83
2021/03/08 04:39:13;;;;;;;;;;;;;;;5.25;52.11;100906.72;5074880;28;19915;-84
2021/03/08 04:42:01;;;;;;;;;;;;;;;5.48;51.66;100905.28;5102707;28;19916;-83
2021/03/08 04:44:47;;;;;;;;;;;;;;;5.25;52.39;100905.91;5104030;28;20405;-83
2021/03/08 04:47:32;;;;;;;;;;;;;;;5.28;52.53;100903.50;5075339;28;20289;-83
2021/03/08 04:50:18;;;;;;;;;;;;;;;5.22;53.35;100903.78;5078528;28;19912;-84
2021/03/08 04:53:03;;;;;;;;;;;;;;;5.26;52.75;100902.13;5096741;28;19911;-85
2021/03/08 04:55:49;;;;;;;;;;;;;;;5.22;52.70;100912.66;5076044;28;19913;-85
2021/03/08 04:58:34;;;;;;;;;;;;;;;5.32;52.96;100911.81;5082890;28;20370;-85
2021/03/08 05:01:19;;;;;;;;;;;;;;;5.37;53.04;100915.31;5090794;28;19916;-84
2021/03/08 05:04:07;;;;;;;;;;;;;;;5.34;52.72;100906.94;5074776;28;19912;-85
2021/03/08 05:06:51;;;;;;;;;;;;;;;5.25;52.92;100911.31;5093084;28;19912;-84
2021/03/08 05:09:38;;;;;;;;;;;;;;;5.23;52.74;100913.47;5073139;28;19912;-84
2021/03/08 05:12:26;;;;;;;;;;;;;;;5.31;52.52;100911.00;5105845;28;19912;-84
2021/03/08 05:15:12;;;;;;;;;;;;;;;5.22;52.72;100922.66;5083935;28;20326;-85
2021/03/08 05:18:23;;;;;;;;;;;;;;;5.24;52.79;100920.47;5053998;28;19916;-84
2021/03/08 05:21:16;;;;;;;;;;;;;;;5.31;52.58;100916.41;5058546;28;19916;-82
2021/03/08 05:24:04;;;;;;;;;;;;;;;5.06;53.20;100914.59;5068461;28;19912;-83
2021/03/08 05:27:08;;;;;;;;;;;;;;;5.25;52.91;100912.09;5052541;28;19912;-84
2021/03/08 05:29:54;;;;;;;;;;;;;;;5.33;52.41;100916.94;5056903;28;19908;-85
2021/03/08 05:32:43;;;;;;;;;;;;;;;5.22;52.73;100915.38;5086209;28;19909;-84
2021/03/08 05:35:29;;;;;;;;;;;;;;;5.26;52.98;100916.44;5079921;28;19916;-85
2021/03/08 05:38:19;;;;;;;;;;;;;;;5.21;54.23;100916.44;5075290;28;19911;-82
2021/03/08 05:41:24;;;;;;;;;;;;;;;5.15;54.37;100912.16;5072203;28;19916;-82
2021/03/08 05:44:12;;;;;;;;;;;;;;;5.26;54.55;100918.31;5077119;28;19912;-84
2021/03/08 05:47:17;;;;;;;;;;;;;;;5.32;53.62;100920.72;5063065;28;19916;-84
2021/03/08 05:50:07;;;;;;;;;;;;;;;5.23;53.53;100913.47;5070643;28;19912;-82
2021/03/08 05:53:11;;;;;;;;;;;;;;;5.15;53.21;100920.22;5092097;28;19908;-82
2021/03/08 05:55:55;;;;;;;;;;;;;;;5.25;53.09;100920.19;5082310;28;19912;-84
2021/03/08 05:59:04;;;;;;;;;;;;;;;5.19;52.99;100915.91;5074936;28;19920;-84
2021/03/08 06:01:48;;;;;;;;;;;;;;;5.27;52.88;100914.53;5064921;28;19916;-84
2021/03/08 06:04:32;;;;;;;;;;;;;;;5.21;53.15;100921.03;5063899;28;19912;-83
2021/03/08 06:07:26;;;;;;;;;;;;;;;5.36;53.33;100913.69;5079222;28;19916;-82
2021/03/08 06:10:31;;;;;;;;;;;;;;;5.64;54.71;100914.91;5086453;28;19912;-82
2021/03/08 06:13:19;;;;;;;;;;;;;;;5.62;53.88;100919.78;5068264;28;19912;-83
2021/03/08 06:16:05;;;;;;;;;;;;;;;5.67;52.88;100908.16;5076259;28;19912;-82
2021/03/08 06:18:52;;;;;;;;;;;;;;;5.64;52.72;100914.13;5071815;28;19912;-82
2021/03/08 06:21:37;;;;;;;;;;;;;;;5.80;52.58;100919.13;5067144;28;19920;-83
2021/03/08 06:24:23;;;;;;;;;;;;;;;6.03;52.77;100916.91;5066183;28;19912;-84
2021/03/08 06:27:09;;;;;;;;;;;;;;;6.28;52.65;100917.53;5068708;28;19912;-84
2021/03/08 06:29:53;;;;;;;;;;;;;;;6.41;51.35;100921.47;5081823;28;19912;-83
2021/03/08 06:32:38;;;;;;;;;;;;;;;6.65;50.81;100930.47;5072679;28;19912;-83
2021/03/08 06:35:23;;;;;;;;;;;;;;;6.85;50.36;100926.78;5070511;28;19912;-83
2021/03/08 06:38:08;;;;;;;;;;;;;;;6.83;49.67;100924.34;5089567;28;19912;-83
2021/03/08 06:40:52;;;;;;;;;;;;;;;6.86;50.88;100920.25;5072084;28;19912;-83
2021/03/08 06:43:38;;;;;;;;;;;;;;;6.88;51.50;100924.28;5083115;28;19917;-83
2021/03/08 06:46:23;;;;;;;;;;;;;;;7.05;50.91;100936.56;5089125;28;19916;-83
2021/03/08 06:49:08;;;;;;;;;;;;;;;6.90;50.32;100926.72;5083254;28;19912;-83
2021/03/08 06:52:04;;;;;;;;;;;;;;;7.01;50.62;100930.13;5069171;28;20378;-83
2021/03/08 06:55:02;;;;;;;;;;;;;;;7.07;50.25;100935.19;5073911;28;19912;-82
2021/03/08 06:57:47;;;;;;;;;;;;;;;7.07;50.61;100937.06;5071242;28;19916;-83
2021/03/08 07:00:32;;;;;;;;;;;;;;;7.05;50.79;100934.69;5073145;28;19912;-83
2021/03/08 07:03:30;;;;;;;;;;;;;;;7.02;50.76;100939.84;5073195;28;19916;-83
2021/03/08 07:06:16;;;;;;;;;;;;;;;7.03;50.80;100939.56;5075027;28;20378;-84
2021/03/08 07:09:09;;;;;;;;;;;;;;;7.08;51.37;100946.81;5069439;28;20306;-85
2021/03/08 07:12:03;;;;;;;;;;;;;;;7.11;51.39;100946.25;5082825;28;19912;-85
2021/03/08 07:15:00;;;;;;;;;;;;;;;7.21;51.48;100951.56;5075271;28;19912;-82
2021/03/08 07:17:45;;;;;;;;;;;;;;;7.21;51.06;100946.16;5074118;28;19934;-82
2021/03/08 07:20:30;;;;;;;;;;;;;;;7.23;51.24;100957.47;5085389;28;19916;-82
2021/03/08 07:23:23;;;;;;;;;;;;;;;7.17;51.34;100953.19;5081753;28;19916;-81
2021/03/08 07:26:10;;;;;;;;;;;;;;;7.24;51.52;100950.97;5072139;28;19912;-80
2021/03/08 07:29:14;;;;;;;;;;;;;;;7.29;51.26;100956.31;5084255;28;19912;-81
2021/03/08 07:31:59;;;;;;;;;;;;;;;7.41;52.27;100953.22;5095323;28;19912;-82
2021/03/08 07:34:46;;;;;;;;;;;;;;;7.46;52.28;100961.28;5072564;28;19912;-82
2021/03/08 07:37:44;;;;;;;;;;;;;;;7.56;51.54;100966.59;5070579;28;19912;-82
2021/03/08 07:40:29;;;;;;;;;;;;;;;7.61;52.25;100967.31;5067694;28;19923;-83
2021/03/08 07:43:18;;;;;;;;;;;;;;;7.64;51.98;100971.34;5085283;28;19916;-81
2021/03/08 07:46:03;;;;;;;;;;;;;;;7.70;52.11;100973.69;5081649;28;20290;-82
2021/03/08 07:48:48;;;;;;;;;;;;;;;7.78;51.31;100976.84;5081466;28;20294;-82
2021/03/08 07:51:33;;;;;;;;;;;;;;;7.95;50.98;100977.97;5083928;28;19912;-81
2021/03/08 07:54:18;;;;;;;;;;;;;;;7.93;51.46;100977.47;5083138;28;20370;-82
2021/03/08 07:57:03;;;;;;;;;;;;;;;7.95;51.59;100979.88;5081515;28;19912;-82
2021/03/08 07:59:47;;;;;;;;;;;;;;;7.99;51.58;100984.44;5072639;28;20475;-82
2021/03/08 08:02:32;;;;;;;;;;;;;;;8.00;51.73;100987.94;5072407;28;20386;-82
2021/03/08 08:05:17;;;;;;;;;;;;;;;8.16;50.50;100992.88;5070519;28;19916;-82
2021/03/08 08:08:02;;;;;;;;;;;;;;;8.13;49.97;100993.44;5073622;28;19912;-81
2021/03/08 08:10:50;;;;;;;;;;;;;;;8.27;50.65;100987.31;5097481;28;19911;-82
2021/03/08 08:13:39;;;;;;;;;;;;;;;8.32;49.13;100990.78;5083930;28;19912;-83
2021/03/08 08:16:31;;;;;;;;;;;;;;;8.28;50.24;100988.91;5073444;28;19912;-78
2021/03/08 08:19:19;;;;;;;;;;;;;;;8.30;49.57;100992.16;5097335;28;19911;-81
2021/03/08 08:22:05;;;;;;;;;;;;;;;8.38;50.27;100989.59;5066862;28;19916;-82
2021/03/08 08:24:54;;;;;;;;;;;;;;;8.42;50.43;100993.34;5073987;28;19912;-84
2021/03/08 08:27:39;;;;;;;;;;;;;;;8.91;49.27;100986.59;5073488;28;19911;-77
2021/03/08 08:30:25;;;;;;;;;;;;;;;9.12;48.39;100995.19;5100841;22;19912;-75
2021/03/08 08:33:25;;;;;;;;;;;;;;;9.48;46.89;100995.34;5027822;28;20315;-76
2021/03/08 08:36:10;;;;;;;;;;;;;;;9.30;46.83;100994.28;5012123;28;20449;-76
2021/03/08 08:38:54;;;;;;;;;;;;;;;9.53;47.09;100987.09;5011827;28;19913;-75
2021/03/08 08:41:39;;;;;;;;;;;;;;;9.49;46.53;100986.91;5031727;28;19917;-76
2021/03/08 08:44:27;;;;;;;;;;;;;;;9.48;46.82;100984.47;5021661;28;20315;-77
2021/03/08 08:47:14;;;;;;;;;;;;;;;9.64;46.06;100986.59;5020958;28;20395;-76
2021/03/08 08:50:02;;;;;;;;;;;;;;;9.60;45.44;100982.06;5020307;28;19913;-76
2021/03/08 08:52:50;;;;;;;;;;;;;;;9.11;47.01;100980.00;5020263;28;20288;-77
2021/03/08 08:55:34;;;;;;;;;;;;;;;9.59;45.64;100975.03;5035059;28;19913;-76
2021/03/08 08:58:26;;;;;;;;;;;;;;;9.48;46.10;100979.03;5034875;28;19913;-75
2021/03/08 09:04:00;;;;;;;;;;;;;;;9.62;47.11;100971.69;5034763;28;20291;-75
2021/03/08 09:06:56;;;;;;;;;;;;;;;9.84;45.26;100971.78;5020207;28;20299;-75
2021/03/08 09:09:47;;;;;;;;;;;;;;;9.73;45.65;100968.47;5021344;28;20383;-76
2021/03/08 09:12:36;;;;;;;;;;;;;;;10.08;44.75;100969.63;5020219;28;19917;-75
2021/03/08 09:15:24;;;;;;;;;;;;;;;9.59;45.98;100969.59;5009581;28;19913;-75
2021/03/08 09:18:12;;;;;;;;;;;;;;;9.94;45.45;100965.34;5021392;28;19912;-75
2021/03/08 09:21:16;;;;;;;;;;;;;;;10.39;43.76;100963.53;5024643;28;20384;-75
2021/03/08 09:24:21;;;;;;;;;;;;;;;10.38;43.97;100956.47;5034939;28;19917;-76
2021/03/08 09:27:06;;;;;;;;;;;;;;;10.62;44.21;100962.41;5011771;28;19913;-78
2021/03/08 09:29:51;;;;;;;;;;;;;;;10.63;41.80;100959.41;5023940;28;19917;-77
2021/03/08 09:32:45;;;;;;;;;;;;;;;10.82;43.10;100952.97;5034793;28;19912;-75
2021/03/08 09:35:51;;;;;;;;;;;;;;;11.08;42.63;100946.53;5040342;28;19917;-76
2021/03/08 09:38:35;;;;;;;;;;;;;;;11.12;42.15;100944.78;5008686;28;19913;-77
2021/03/08 09:41:27;;;;;;;;;;;;;;;11.29;41.69;100956.88;5022775;28;19917;-78
2021/03/08 09:44:11;;;;;;;;;;;;;;;11.35;41.36;100939.31;5021982;28;19913;-77
2021/03/08 09:46:56;;;;;;;;;;;;;;;11.25;40.13;100943.09;5024155;28;20367;-79
2021/03/08 09:49:53;;;;;;;;;;;;;;;11.57;40.77;100947.41;5024322;28;19917;-79
2021/03/08 09:52:42;;;;;;;;;;;;;;;11.23;42.06;100947.25;5036788;28;19913;-79
2021/03/08 09:55:27;;;;;;;;;;;;;;;11.44;41.64;100940.94;5037769;28;20364;-83
2021/03/08 09:58:11;;;;;;;;;;;;;;;11.63;41.57;100940.66;5029107;28;20279;-84
2021/03/08 10:00:59;;;;;;;;;;;;;;;11.79;42.17;100944.59;5040660;28;19913;-84
2021/03/08 10:03:44;;;;;;;;;;;;;;;12.59;40.00;100945.13;5029962;28;19916;-78
2021/03/08 10:06:34;;;;;;;;;;;;;;;13.32;38.49;100934.97;5036093;28;19916;-79
2021/03/08 10:09:22;;;;;;;;;;;;;;;13.16;37.33;100938.25;5037985;28;19913;-79
2021/03/08 10:12:08;;;;;;;;;;;;;;;12.34;39.23;100938.56;5041463;28;19912;-79
2021/03/08 10:15:00;;;;;;;;;;;;;;;12.15;40.35;100933.41;5049749;28;20403;-80
2021/03/08 10:17:57;;;;;;;;;;;;;;;12.77;40.48;100931.13;5033444;28;19912;-81
2021/03/08 10:21:00;;;;;;;;;;;;;;;12.02;40.35;100928.94;5034308;28;19912;-79
2021/03/08 10:23:44;;;;;;;;;;;;;;;12.34;39.18;100927.66;5029224;28;19917;-79
2021/03/08 10:26:29;;;;;;;;;;;;;;;12.84;39.94;100933.34;5041450;28;20299;-79
2021/03/08 10:29:14;;;;;;;;;;;;;;;13.18;40.44;100927.00;5053812;28;19912;-78
2021/03/08 10:32:00;;;;;;;;;;;;;;;13.58;40.99;100925.53;5039119;28;19913;-80
2021/03/08 10:34:45;;;;;;;;;;;;;;;12.65;38.55;100922.78;5041117;28;19912;-78
2021/03/08 10:37:30;;;;;;;;;;;;;;;12.81;37.85;100923.88;5039374;28;20292;-78
2021/03/08 10:40:18;;;;;;;;;;;;;;;12.18;39.43;100921.06;5053992;28;19913;-80
2021/03/08 10:43:03;;;;;;;;;;;;;;;12.11;39.65;100928.91;5038731;28;19916;-81
2021/03/08 10:45:49;;;;;;;;;;;;;;;12.49;39.12;100921.72;5053353;28;19938;-79
2021/03/08 10:48:34;;;;;;;;;;;;;;;13.54;37.99;100921.06;5041397;28;19912;-80
2021/03/08 10:51:19;;;;;;;;;;;;;;;13.46;37.44;100922.69;5028933;28;19913;-81
2021/03/08 10:54:08;;;;;;;;;;;;;;;12.66;38.97;100927.13;5058315;28;20379;-79
2021/03/08 10:56:59;;;;;;;;;;;;;;;11.49;41.39;100927.19;5058555;28;20291;-80
2021/03/08 10:59:45;;;;;;;;;;;;;;;11.26;41.98;100914.78;5057863;28;19913;-81
2021/03/08 11:02:34;;;;;;;;;;;;;;;11.04;42.45;100921.09;5055959;28;20306;-81
2021/03/08 11:05:20;;;;;;;;;;;;;;;11.44;42.24;100926.50;5061521;28;19913;-81
2021/03/08 11:08:12;;;;;;;;;;;;;;;11.49;41.40;100913.56;5055981;28;19913;-81
2021/03/08 11:10:56;;;;;;;;;;;;;;;11.42;42.26;100912.44;5054609;28;19913;-79
2021/03/08 11:13:41;;;;;;;;;;;;;;;11.53;42.34;100917.25;5061295;28;19916;-78
2021/03/08 11:16:26;;;;;;;;;;;;;;;11.50;41.60;100908.91;5061236;28;19913;-80
2021/03/08 11:19:14;;;;;;;;;;;;;;;11.18;42.70;100906.56;5054885;28;20330;-80
2021/03/08 11:22:13;;;;;;;;;;;;;;;11.63;42.29;100912.66;5068714;28;19916;-80
2021/03/08 11:24:58;;;;;;;;;;;;;;;11.61;41.81;100909.44;5070184;28;19921;-81
2021/03/08 11:27:46;;;;;;;;;;;;;;;11.79;41.40;100911.09;5073583;28;19916;-79
2021/03/08 11:30:32;;;;;;;;;;;;;;;11.63;41.18;100902.53;5077624;28;20416;-81
2021/03/08 11:33:18;;;;;;;;;;;;;;;11.21;41.91;100900.50;5074620;28;19912;-79
2021/03/08 11:36:03;;;;;;;;;;;;;;;11.36;41.91;100897.34;5068477;28;20390;-80
2021/03/08 11:38:50;;;;;;;;;;;;;;;11.22;42.68;100899.38;5060298;28;19917;-81
2021/03/08 11:41:35;;;;;;;;;;;;;;;11.36;41.75;100891.91;5055891;28;19912;-81
2021/03/08 11:44:19;;;;;;;;;;;;;;;11.60;41.64;100897.72;5056922;28;19921;-81
2021/03/08 11:47:06;;;;;;;;;;;;;;;12.12;40.38;100889.66;5067164;28;19912;-82
2021/03/08 11:49:51;;;;;;;;;;;;;;;11.92;40.80;100888.34;5090869;28;20366;-81
2021/03/08 11:52:35;;;;;;;;;;;;;;;12.07;40.79;100887.06;5087078;28;19912;-82
2021/03/08 11:55:21;;;;;;;;;;;;;;;12.23;40.30;100888.19;5086586;28;19942;-81
2021/03/08 11:58:06;;;;;;;;;;;;;;;12.47;40.23;100874.84;5089443;28;19913;-82
2021/03/08 12:00:52;;;;;;;;;;;;;;;12.72;39.92;100874.00;5072857;28;19916;-81
2021/03/08 12:03:36;;;;;;;;;;;;;;;12.51;39.38;100858.63;5074316;28;19916;-81
2021/03/08 12:06:21;;;;;;;;;;;;;;;12.44;39.85;100856.41;5058885;28;19916;-83
2021/03/08 12:09:06;;;;;;;;;;;;;;;12.33;39.62;100863.31;5047528;28;20287;-81
2021/03/08 12:11:50;;;;;;;;;;;;;;;12.38;40.16;100852.25;5032868;28;20093;-82
2021/03/08 12:14:35;;;;;;;;;;;;;;;12.64;39.36;100863.91;5069852;28;19912;-82
2021/03/08 12:17:21;;;;;;;;;;;;;;;12.94;38.61;100853.06;5069452;28;19916;-83
2021/03/08 12:20:07;;;;;;;;;;;;;;;12.93;38.79;100856.91;5078076;28;19913;-83
2021/03/08 12:22:53;;;;;;;;;;;;;;;13.27;38.09;100859.50;5072609;28;19916;-83
2021/03/08 12:25:39;;;;;;;;;;;;;;;13.13;38.15;100848.00;5074692;28;19912;-82
2021/03/08 12:28:23;;;;;;;;;;;;;;;13.47;37.69;100842.34;5073814;28;19912;-84
2021/03/08 12:31:09;;;;;;;;;;;;;;;13.49;38.02;100836.56;5076573;28;19912;-84
2021/03/08 12:33:53;;;;;;;;;;;;;;;13.52;37.92;100836.69;5067930;28;19912;-81
2021/03/08 12:36:38;;;;;;;;;;;;;;;13.32;38.10;100834.72;5087179;28;19916;-81
2021/03/08 12:39:23;;;;;;;;;;;;;;;13.52;38.30;100820.28;5073812;28;19912;-81
2021/03/08 12:42:07;;;;;;;;;;;;;;;13.84;37.40;100823.44;5071483;28;19916;-81
2021/03/08 12:44:52;;;;;;;;;;;;;;;13.79;37.92;100812.72;5087756;28;19917;-82
2021/03/08 12:47:37;;;;;;;;;;;;;;;14.06;37.07;100820.38;5090809;28;19908;-81
2021/03/08 12:50:21;;;;;;;;;;;;;;;14.07;36.69;100811.00;5085204;28;19916;-83
2021/03/08 12:53:06;;;;;;;;;;;;;;;13.85;37.00;100803.97;5081794;28;19912;-82
2021/03/08 12:55:51;;;;;;;;;;;;;;;14.12;36.71;100797.91;5086815;28;20175;-82
2021/03/08 12:58:35;;;;;;;;;;;;;;;14.05;37.07;100789.47;5084026;28;20286;-81
2021/03/08 13:01:20;;;;;;;;;;;;;;;14.04;36.94;100795.28;5080989;28;20379;-82
2021/03/08 13:04:05;;;;;;;;;;;;;;;14.06;36.97;100790.28;5069325;28;20295;-81
2021/03/08 13:06:49;;;;;;;;;;;;;;;13.94;37.23;100801.97;5082650;28;19912;-81
2021/03/08 13:09:35;;;;;;;;;;;;;;;13.78;36.97;100786.50;5080872;28;19912;-81
2021/03/08 13:12:20;;;;;;;;;;;;;;;14.03;37.60;100785.47;5080941;28;19912;-81
2021/03/08 13:15:05;;;;;;;;;;;;;;;14.02;36.73;100775.66;5082342;28;19912;-81
2021/03/08 13:17:50;;;;;;;;;;;;;;;14.22;37.17;100780.28;5080284;28;19913;-81
2021/03/08 13:20:35;;;;;;;;;;;;;;;14.45;36.93;100781.53;5083881;28;19912;-83
2021/03/08 13:23:20;;;;;;;;;;;;;;;14.16;36.82;100778.91;5082380;28;20374;-82
2021/03/08 13:26:05;;;;;;;;;;;;;;;13.98;37.25;100770.06;5084688;28;19912;-82
2021/03/08 13:28:53;;;;;;;;;;;;;;;14.54;36.29;100781.41;5067817;28;20371;-82
2021/03/08 13:31:38;;;;;;;;;;;;;;;14.49;36.04;100774.22;5079828;28;19912;-82
2021/03/08 13:34:23;;;;;;;;;;;;;;;14.44;35.97;100773.66;5079049;28;19912;-81
2021/03/08 13:37:07;;;;;;;;;;;;;;;14.17;36.51;100769.56;5082265;28;19912;-82
2021/03/08 13:39:51;;;;;;;;;;;;;;;14.57;36.27;100758.06;5084655;28;20408;-81
2021/03/08 13:42:36;;;;;;;;;;;;;;;14.52;35.97;100768.09;5077535;28;20286;-82
2021/03/08 13:45:21;;;;;;;;;;;;;;;14.44;35.67;100760.75;5082592;28;19912;-81
2021/03/08 13:48:07;;;;;;;;;;;;;;;14.07;36.36;100759.03;5080755;28;19912;-81
2021/03/08 13:50:51;;;;;;;;;;;;;;;14.41;36.08;100758.72;5081700;28;20293;-81
2021/03/08 13:53:35;;;;;;;;;;;;;;;14.28;36.52;100754.31;5082002;28;20396;-82
2021/03/08 13:56:20;;;;;;;;;;;;;;;14.24;36.48;100753.41;5080231;28;20299;-82
2021/03/08 13:59:06;;;;;;;;;;;;;;;14.04;36.94;100754.25;5078616;28;20298;-83
2021/03/08 14:01:51;;;;;;;;;;;;;;;14.40;36.28;100750.84;5042081;28;19913;-83
2021/03/08 14:04:35;;;;;;;;;;;;;;;14.06;36.71;100754.72;5042471;28;19917;-82
2021/03/08 14:07:20;;;;;;;;;;;;;;;14.24;36.48;100753.41;5063234;28;19913;-81
2021/03/08 14:10:05;;;;;;;;;;;;;;;14.29;36.23;100744.97;5043169;28;19913;-81
2021/03/08 14:12:50;;;;;;;;;;;;;;;14.25;36.39;100746.78;5040161;28;19913;-81
2021/03/08 14:15:34;;;;;;;;;;;;;;;14.20;36.04;100744.28;5042189;28;19913;-81
2021/03/08 14:18:19;;;;;;;;;;;;;;;14.21;36.20;100736.88;5041809;28;19913;-80
2021/03/08 14:21:04;;;;;;;;;;;;;;;14.22;37.34;100739.25;5039812;28;20302;-81
2021/03/08 14:23:49;;;;;;;;;;;;;;;14.32;36.83;100736.09;5054403;28;20375;-82
2021/03/08 14:26:34;;;;;;;;;;;;;;;14.14;36.53;100732.75;5043753;28;19912;-82
2021/03/08 14:29:19;;;;;;;;;;;;;;;14.31;36.26;100737.25;5041530;28;19912;-82